Terminal Aerodrome Forecast
Issued by NWS Sterling, VA

Current Version | Previous Version | Text Only | Print | Product List | Glossary Off
Versions: 1 2 3 4 5 6 7 8 9 10 11 12 13 14 15 16

000
FTUS41 KLWX 300500
TAFMRB
TAF
KMRB 300532Z 3006/3106 VRB03KT P6SM BKN050
     FM301100 15004KT P6SM SCT050
     FM301300 16006KT P6SM BKN050
     FM301900 16010KT P6SM BKN250
     FM310100 16006KT P6SM BKN250
     FM310300 16006KT 5SM BR BKN250=

USA.gov is the U.S. government's official web portal to all federal, state and local government web resources and services.